createdAt,value
2023-01-29T00:00:23.970Z,11.93
2023-01-29T00:02:50.549Z,11.32
2023-01-29T00:05:27.625Z,11.50
2023-01-29T00:07:56.193Z,11.57
2023-01-29T00:10:24.230Z,11.30
2023-01-29T00:12:51.679Z,11.00
2023-01-29T00:15:18.629Z,11.25
2023-01-29T00:17:45.167Z,11.43
2023-01-29T00:20:12.028Z,10.93
2023-01-29T00:22:38.515Z,11.35
2023-01-29T00:25:05.468Z,12.20
2023-01-29T00:27:31.965Z,10.68
2023-01-29T00:30:12.661Z,11.02
2023-01-29T00:32:42.557Z,10.95
2023-01-29T00:35:09.657Z,10.43
2023-01-29T00:37:36.147Z,10.95
2023-01-29T00:40:03.187Z,11.50
2023-01-29T00:42:48.381Z,10.82
2023-01-29T00:45:15.158Z,10.82
2023-01-29T00:47:41.680Z,10.27
2023-01-29T00:50:10.992Z,10.27
2023-01-29T00:52:37.907Z,9.95
2023-01-29T00:55:06.192Z,9.85
2023-01-29T00:57:34.427Z,10.75
2023-01-29T01:00:01.748Z,11.45
2023-01-29T01:02:46.901Z,10.98
2023-01-29T01:05:19.523Z,11.25
2023-01-29T01:07:51.762Z,11.05
2023-01-29T01:10:30.833Z,10.65
2023-01-29T01:13:07.161Z,9.95
2023-01-29T01:15:39.876Z,9.77
2023-01-29T01:18:06.680Z,9.60
2023-01-29T01:20:34.785Z,10.18
2023-01-29T01:23:01.341Z,10.45
2023-01-29T01:25:27.947Z,11.32
2023-01-29T01:27:56.221Z,10.65
2023-01-29T01:30:23.691Z,11.27
2023-01-29T01:32:50.711Z,10.70
2023-01-29T01:35:17.357Z,10.77
2023-01-29T01:37:43.881Z,10.18
2023-01-29T01:40:20.326Z,10.70
2023-01-29T01:42:52.324Z,9.65
2023-01-29T01:45:33.144Z,10.55
2023-01-29T01:48:17.303Z,10.02
2023-01-29T01:50:52.190Z,9.50
2023-01-29T01:53:26.651Z,10.60
2023-01-29T01:55:59.020Z,11.40
2023-01-29T01:58:47.803Z,10.27
2023-01-29T02:01:14.531Z,11.13
2023-01-29T02:04:12.501Z,11.00
2023-01-29T02:06:59.282Z,10.45
2023-01-29T02:09:31.439Z,11.02
2023-01-29T02:11:58.025Z,10.05
2023-01-29T02:14:25.411Z,10.57
2023-01-29T02:16:52.064Z,10.88
2023-01-29T02:19:35.559Z,9.52
2023-01-29T02:22:25.697Z,10.27
2023-01-29T02:25:09.672Z,9.82
2023-01-29T02:27:48.397Z,10.80
2023-01-29T02:30:36.188Z,10.35
2023-01-29T02:33:22.143Z,10.38
2023-01-29T02:35:56.628Z,10.07
2023-01-29T02:38:36.261Z,10.63
2023-01-29T02:41:20.837Z,10.45
2023-01-29T02:44:13.159Z,9.30
2023-01-29T02:46:54.904Z,10.55
2023-01-29T02:49:48.138Z,10.48
2023-01-29T02:52:19.174Z,9.75
2023-01-29T02:55:04.744Z,9.77
2023-01-29T02:57:39.215Z,10.18
2023-01-29T03:00:19.493Z,11.18
2023-01-29T03:03:03.632Z,10.88
2023-01-29T03:05:51.037Z,10.18
2023-01-29T03:08:23.651Z,10.43
2023-01-29T03:11:03.189Z,10.35
2023-01-29T03:14:13.302Z,9.82
2023-01-29T03:16:53.829Z,10.02
2023-01-29T03:19:29.035Z,10.55
2023-01-29T03:22:01.562Z,10.60
2023-01-29T03:24:53.128Z,10.10
2023-01-29T03:27:41.539Z,9.88
2023-01-29T03:30:31.343Z,9.32
2023-01-29T03:33:02.451Z,11.30
2023-01-29T03:35:36.422Z,10.52
2023-01-29T03:38:05.459Z,9.32
2023-01-29T03:40:40.158Z,9.75
2023-01-29T03:43:13.323Z,10.45
2023-01-29T03:45:55.355Z,10.57
2023-01-29T03:48:39.979Z,10.32
2023-01-29T03:51:13.810Z,9.88
2023-01-29T03:53:58.581Z,9.77
2023-01-29T03:56:51.703Z,10.48
2023-01-29T03:59:25.668Z,9.27
2023-01-29T04:01:57.239Z,9.73
2023-01-29T04:04:28.265Z,11.18
2023-01-29T04:07:00.579Z,10.07
2023-01-29T04:09:43.429Z,11.13
2023-01-29T04:12:12.106Z,10.52
2023-01-29T04:14:39.387Z,10.32
2023-01-29T04:17:15.787Z,10.60
2023-01-29T04:19:42.873Z,10.45
2023-01-29T04:22:19.683Z,10.57
2023-01-29T04:24:48.403Z,11.20
2023-01-29T04:27:21.155Z,10.88
2023-01-29T04:29:56.381Z,10.70
2023-01-29T04:32:54.758Z,11.55
2023-01-29T04:35:53.617Z,9.68
2023-01-29T04:38:51.883Z,10.77
2023-01-29T04:41:33.531Z,10.65
2023-01-29T04:44:50.723Z,10.63
2023-01-29T04:47:50.473Z,11.40
2023-01-29T04:50:28.649Z,10.65
2023-01-29T04:53:07.185Z,9.98
2023-01-29T04:55:45.272Z,10.77
2023-01-29T04:58:21.573Z,10.98
2023-01-29T05:00:53.462Z,10.70
2023-01-29T05:03:24.416Z,11.35
2023-01-29T05:05:51.291Z,9.48
2023-01-29T05:08:21.482Z,11.38
2023-01-29T05:10:49.796Z,11.25
2023-01-29T05:13:18.900Z,11.02
2023-01-29T05:15:52.418Z,10.85
2023-01-29T05:18:19.332Z,11.95
2023-01-29T05:20:47.788Z,11.23
2023-01-29T05:23:18.956Z,11.27
2023-01-29T05:25:46.409Z,10.95
2023-01-29T05:28:18.985Z,10.93
2023-01-29T05:30:48.078Z,11.23
2023-01-29T05:33:29.018Z,11.15
2023-01-29T05:35:58.160Z,11.00
2023-01-29T05:38:24.783Z,11.30
2023-01-29T05:40:51.318Z,12.32
2023-01-29T05:43:23.115Z,10.98
2023-01-29T05:45:58.715Z,11.40
2023-01-29T05:48:29.302Z,12.18
2023-01-29T05:51:03.279Z,12.18
2023-01-29T05:53:31.216Z,11.10
2023-01-29T05:56:01.376Z,12.30
2023-01-29T05:58:28.009Z,10.77
2023-01-29T06:00:54.549Z,12.10
2023-01-29T06:03:21.013Z,12.20
2023-01-29T06:05:47.491Z,11.60
2023-01-29T06:08:13.984Z,11.70
2023-01-29T06:10:40.545Z,12.75
2023-01-29T06:13:07.881Z,11.55
2023-01-29T06:15:34.378Z,11.73
2023-01-29T06:18:00.851Z,11.85
2023-01-29T06:20:27.391Z,12.48
2023-01-29T06:22:53.902Z,12.55
2023-01-29T06:25:20.388Z,11.77
2023-01-29T06:27:50.633Z,12.50
2023-01-29T06:30:17.665Z,12.63
2023-01-29T06:32:44.320Z,12.75
2023-01-29T06:35:10.983Z,13.05
2023-01-29T06:37:37.723Z,10.55
2023-01-29T06:40:04.712Z,12.25
2023-01-29T06:42:31.503Z,11.07
2023-01-29T06:44:58.013Z,13.82
2023-01-29T06:47:24.988Z,13.02
2023-01-29T06:49:52.302Z,11.88
2023-01-29T06:52:19.018Z,12.88
2023-01-29T06:54:45.999Z,13.45
2023-01-29T06:57:12.526Z,12.93
2023-01-29T06:59:39.011Z,12.35
2023-01-29T07:02:05.552Z,12.15
2023-01-29T07:04:32.149Z,12.90
2023-01-29T07:07:01.710Z,13.00
2023-01-29T07:09:28.198Z,12.65
2023-01-29T07:11:54.840Z,12.85
2023-01-29T07:14:21.302Z,12.82
2023-01-29T07:16:47.809Z,13.52
2023-01-29T07:19:14.572Z,12.63
2023-01-29T07:21:41.043Z,13.20
2023-01-29T07:24:07.874Z,13.30
2023-01-29T07:26:34.361Z,13.50
2023-01-29T07:29:00.864Z,13.15
2023-01-29T07:31:27.533Z,13.68
2023-01-29T07:33:54.044Z,12.77
2023-01-29T07:36:20.585Z,12.57
2023-01-29T07:38:51.016Z,13.10
2023-01-29T07:41:17.607Z,14.38
2023-01-29T07:43:44.135Z,12.93
2023-01-29T07:46:10.722Z,13.77
2023-01-29T07:48:37.290Z,11.20
2023-01-29T07:51:05.173Z,13.65
2023-01-29T07:53:33.508Z,13.25
2023-01-29T07:56:00.447Z,14.57
2023-01-29T07:58:26.979Z,13.57
2023-01-29T08:00:53.511Z,13.13
2023-01-29T08:03:20.263Z,14.55
2023-01-29T08:05:47.433Z,15.00
2023-01-29T08:08:14.374Z,14.43
2023-01-29T08:10:41.575Z,13.25
2023-01-29T08:13:08.207Z,13.70
2023-01-29T08:15:37.941Z,14.27
2023-01-29T08:18:05.995Z,15.13
2023-01-29T08:20:32.684Z,15.27
2023-01-29T08:23:05.877Z,13.48
2023-01-29T08:25:32.880Z,14.95
2023-01-29T08:28:00.490Z,14.80
2023-01-29T08:30:29.844Z,15.77
2023-01-29T08:32:56.628Z,15.68
2023-01-29T08:35:23.784Z,16.88
2023-01-29T08:38:02.016Z,17.05
2023-01-29T08:40:31.617Z,16.42
2023-01-29T08:43:02.054Z,18.90
2023-01-29T08:45:30.447Z,15.60
2023-01-29T08:47:57.346Z,18.95
2023-01-29T08:50:24.150Z,17.52
2023-01-29T08:52:50.770Z,18.92
2023-01-29T08:55:17.718Z,19.20
2023-01-29T08:57:44.475Z,20.08
2023-01-29T09:00:11.787Z,19.98
2023-01-29T09:02:38.332Z,21.27
2023-01-29T09:05:05.554Z,21.45
2023-01-29T09:07:32.934Z,19.73
2023-01-29T09:09:59.595Z,22.05
2023-01-29T09:12:26.258Z,20.98
2023-01-29T09:14:52.884Z,20.70
2023-01-29T09:17:19.612Z,21.55
2023-01-29T09:19:46.357Z,20.45
2023-01-29T09:22:12.939Z,20.35
2023-01-29T09:24:39.537Z,21.00
2023-01-29T09:27:06.193Z,21.65
2023-01-29T09:29:35.680Z,21.35
2023-01-29T09:32:04.351Z,21.30
2023-01-29T09:34:30.867Z,21.45
2023-01-29T09:36:57.394Z,22.00
2023-01-29T09:39:23.886Z,21.08
2023-01-29T09:42:08.157Z,21.35
2023-01-29T09:44:47.012Z,19.98
2023-01-29T09:47:16.935Z,20.35
2023-01-29T09:49:55.301Z,22.02
2023-01-29T09:52:32.543Z,18.02
2023-01-29T09:55:23.049Z,20.60
2023-01-29T09:57:53.260Z,20.25
2023-01-29T10:00:57.681Z,20.80
2023-01-29T10:03:34.912Z,19.23
2023-01-29T10:06:23.316Z,21.00
2023-01-29T10:12:02.565Z,11.25
2023-01-29T10:14:59.559Z,18.00
2023-01-29T10:17:35.374Z,17.77
2023-01-29T10:20:26.317Z,17.70
2023-01-29T10:23:02.307Z,16.25
2023-01-29T10:25:28.989Z,15.38
2023-01-29T10:27:59.021Z,16.35
2023-01-29T10:30:35.755Z,15.90
2023-01-29T10:33:06.117Z,16.25
2023-01-29T10:35:42.089Z,11.35
2023-01-29T10:38:34.187Z,15.10
2023-01-29T10:41:21.219Z,14.75
2023-01-29T10:44:15.254Z,16.40
2023-01-29T10:47:14.241Z,14.90
2023-01-29T10:49:40.720Z,15.70
2023-01-29T10:52:22.821Z,13.13
2023-01-29T10:55:03.341Z,15.65
2023-01-29T10:57:51.394Z,16.00
2023-01-29T11:00:26.255Z,15.90
2023-01-29T11:02:53.165Z,14.52
2023-01-29T11:05:31.945Z,15.43
2023-01-29T11:08:12.749Z,14.48
2023-01-29T11:10:47.886Z,10.48
2023-01-29T11:13:16.237Z,15.77
2023-01-29T11:15:43.505Z,14.98
2023-01-29T11:18:15.526Z,14.88
2023-01-29T11:20:44.424Z,15.05
2023-01-29T11:23:30.057Z,14.73
2023-01-29T11:25:58.790Z,14.57
2023-01-29T11:28:38.932Z,13.38
2023-01-29T11:31:29.333Z,14.32
2023-01-29T11:34:22.234Z,13.77
2023-01-29T11:37:00.822Z,14.98
2023-01-29T11:39:28.964Z,15.00
2023-01-29T11:42:01.196Z,15.30
2023-01-29T11:44:32.819Z,14.45
2023-01-29T11:47:26.180Z,14.35
2023-01-29T11:49:55.315Z,13.38
2023-01-29T11:52:25.526Z,14.55
2023-01-29T11:54:59.944Z,12.82
2023-01-29T11:57:35.610Z,14.73
2023-01-29T12:00:24.916Z,13.90
2023-01-29T12:03:01.368Z,14.27
2023-01-29T12:05:28.209Z,13.82
2023-01-29T12:07:59.912Z,12.20
2023-01-29T12:10:38.608Z,13.55
2023-01-29T12:13:06.702Z,12.90
2023-01-29T12:15:33.509Z,14.95
2023-01-29T12:18:06.269Z,13.10
2023-01-29T12:20:45.225Z,14.00
2023-01-29T12:23:30.868Z,12.93
2023-01-29T12:26:27.535Z,12.43
2023-01-29T12:29:19.098Z,12.50
2023-01-29T12:32:06.819Z,13.90
2023-01-29T12:34:43.478Z,13.25
2023-01-29T12:37:30.400Z,13.65
2023-01-29T12:39:56.923Z,13.57
2023-01-29T12:42:24.480Z,14.77
2023-01-29T12:45:00.364Z,13.55
2023-01-29T12:47:30.767Z,13.35
2023-01-29T12:50:03.105Z,13.82
2023-01-29T12:52:48.126Z,12.25
2023-01-29T12:55:26.822Z,12.30
2023-01-29T12:57:58.528Z,11.77
2023-01-29T13:00:40.209Z,12.75
2023-01-29T13:03:19.480Z,13.25
2023-01-29T13:05:49.109Z,13.65
2023-01-29T13:08:34.232Z,14.77
2023-01-29T13:11:06.544Z,13.85
2023-01-29T13:13:42.753Z,13.38
2023-01-29T13:16:13.777Z,13.43
2023-01-29T13:18:42.297Z,12.90
2023-01-29T13:21:15.344Z,15.32
2023-01-29T13:23:46.931Z,13.10
2023-01-29T13:26:18.024Z,13.15
2023-01-29T13:28:45.585Z,12.23
2023-01-29T13:31:25.525Z,12.15
2023-01-29T13:34:04.623Z,13.10
2023-01-29T13:36:32.084Z,13.25
2023-01-29T13:39:03.990Z,13.70
2023-01-29T13:41:35.987Z,12.38
2023-01-29T13:44:05.797Z,12.57
2023-01-29T13:46:32.742Z,12.95
2023-01-29T13:49:04.732Z,12.75
2023-01-29T13:51:36.396Z,12.30
2023-01-29T13:54:08.771Z,12.27
2023-01-29T13:56:35.338Z,14.07
2023-01-29T13:59:05.262Z,12.48
2023-01-29T14:04:21.535Z,12.32
2023-01-29T14:06:51.530Z,13.55
2023-01-29T14:09:37.168Z,13.05
2023-01-29T14:12:24.896Z,13.32
2023-01-29T14:15:04.184Z,13.30
2023-01-29T14:17:31.028Z,11.32
2023-01-29T14:20:03.828Z,13.82
2023-01-29T14:22:33.814Z,14.00
2023-01-29T14:25:04.719Z,13.95
2023-01-29T14:27:32.377Z,13.70
2023-01-29T14:30:02.471Z,13.02
2023-01-29T14:32:29.871Z,13.35
2023-01-29T14:35:09.892Z,14.80
2023-01-29T14:37:41.472Z,13.65
2023-01-29T14:40:19.828Z,11.35
2023-01-29T14:43:06.590Z,14.40
2023-01-29T14:45:35.239Z,15.23
2023-01-29T14:48:11.023Z,13.63
2023-01-29T14:50:41.985Z,15.13
2023-01-29T14:53:27.505Z,16.02
2023-01-29T14:56:12.080Z,14.80
2023-01-29T14:58:43.508Z,11.88
2023-01-29T15:01:25.185Z,15.23
2023-01-29T15:04:20.946Z,15.35
2023-01-29T15:06:53.045Z,14.82
2023-01-29T15:09:39.054Z,15.55
2023-01-29T15:12:15.431Z,15.63
2023-01-29T15:14:52.019Z,15.88
2023-01-29T15:17:28.396Z,14.02
2023-01-29T15:19:57.270Z,15.75
2023-01-29T15:22:26.066Z,14.77
2023-01-29T15:25:12.952Z,14.77
2023-01-29T15:27:44.465Z,14.07
2023-01-29T15:30:17.699Z,13.93
2023-01-29T15:32:44.989Z,14.98
2023-01-29T15:35:24.429Z,15.13
2023-01-29T15:38:06.068Z,15.63
2023-01-29T15:40:33.105Z,15.15
2023-01-29T15:43:00.089Z,15.27
2023-01-29T15:45:31.844Z,16.30
2023-01-29T15:48:06.975Z,14.93
2023-01-29T15:50:39.205Z,15.18
2023-01-29T15:53:09.515Z,15.23
2023-01-29T15:55:36.431Z,14.38
2023-01-29T15:58:03.675Z,14.55
2023-01-29T16:00:30.617Z,14.05
2023-01-29T16:03:00.526Z,14.38
2023-01-29T16:05:32.833Z,13.77
2023-01-29T16:08:00.684Z,13.80
2023-01-29T16:10:30.360Z,10.63
2023-01-29T16:12:58.079Z,13.90
2023-01-29T16:15:32.855Z,15.05
2023-01-29T16:18:01.199Z,13.57
2023-01-29T16:20:35.018Z,12.55
2023-01-29T16:23:02.372Z,14.13
2023-01-29T16:25:30.641Z,14.20
2023-01-29T16:27:58.516Z,13.02
2023-01-29T16:30:27.795Z,15.85
2023-01-29T16:33:02.618Z,14.68
2023-01-29T16:35:29.401Z,15.70
2023-01-29T16:38:03.227Z,15.23
2023-01-29T16:40:33.389Z,16.45
2023-01-29T16:43:15.208Z,16.15
2023-01-29T16:45:41.765Z,15.20
2023-01-29T16:48:32.017Z,16.67
2023-01-29T16:51:12.528Z,15.57
2023-01-29T16:53:39.429Z,16.27
2023-01-29T16:56:08.163Z,16.23
2023-01-29T16:58:35.448Z,17.48
2023-01-29T17:01:07.253Z,16.70
2023-01-29T17:03:35.583Z,15.48
2023-01-29T17:06:13.555Z,15.73
2023-01-29T17:08:43.594Z,16.10
2023-01-29T17:11:14.012Z,14.65
2023-01-29T17:13:44.407Z,15.65
2023-01-29T17:16:20.909Z,15.88
2023-01-29T17:18:47.630Z,16.58
2023-01-29T17:21:14.165Z,14.80
2023-01-29T17:23:40.757Z,13.63
2023-01-29T17:26:30.946Z,14.13
2023-01-29T17:29:00.721Z,12.02
2023-01-29T17:31:27.891Z,16.05
2023-01-29T17:33:54.534Z,21.83
2023-01-29T17:36:21.561Z,15.43
2023-01-29T17:38:48.300Z,17.40
2023-01-29T17:41:31.451Z,14.13
2023-01-29T17:43:58.016Z,16.17
2023-01-29T17:46:24.533Z,13.48
2023-01-29T17:48:51.066Z,15.32
2023-01-29T17:51:18.253Z,17.75
2023-01-29T17:53:46.985Z,16.13
2023-01-29T17:56:30.551Z,8.32
2023-01-29T17:58:57.136Z,17.27
2023-01-29T18:01:23.866Z,16.20
2023-01-29T18:03:50.473Z,17.52
2023-01-29T18:06:29.707Z,19.63
2023-01-29T18:08:56.675Z,13.60
2023-01-29T18:11:23.980Z,16.83
2023-01-29T18:13:50.484Z,17.55
2023-01-29T18:16:18.468Z,17.33
2023-01-29T18:18:45.053Z,14.43
2023-01-29T18:21:11.595Z,19.98
2023-01-29T18:23:38.204Z,19.23
2023-01-29T18:26:06.000Z,18.48
2023-01-29T18:28:33.104Z,21.02
2023-01-29T18:31:05.330Z,18.92
2023-01-29T18:33:34.143Z,21.00
2023-01-29T18:36:00.855Z,12.68
2023-01-29T18:38:27.712Z,20.38
2023-01-29T18:41:01.919Z,20.02
2023-01-29T18:43:28.598Z,20.15
2023-01-29T18:45:59.888Z,15.60
2023-01-29T18:48:26.679Z,16.25
2023-01-29T18:50:53.420Z,20.42
2023-01-29T18:53:20.334Z,19.85
2023-01-29T18:56:04.084Z,19.73
2023-01-29T18:58:35.638Z,19.27
2023-01-29T19:01:07.061Z,19.98
2023-01-29T19:03:33.707Z,20.30
2023-01-29T19:06:02.079Z,23.15
2023-01-29T19:08:29.508Z,18.17
2023-01-29T19:10:56.503Z,21.83
2023-01-29T19:13:23.084Z,20.63
2023-01-29T19:15:49.573Z,22.00
2023-01-29T19:18:16.082Z,18.58
2023-01-29T19:20:42.600Z,18.73
2023-01-29T19:23:09.507Z,23.17
2023-01-29T19:25:38.645Z,21.15
2023-01-29T19:28:07.229Z,22.80
2023-01-29T19:30:33.780Z,21.95
2023-01-29T19:33:00.562Z,15.63
2023-01-29T19:35:27.296Z,21.17
2023-01-29T19:37:54.392Z,23.23
2023-01-29T19:40:21.042Z,20.13
2023-01-29T19:42:48.106Z,23.27
2023-01-29T19:45:15.067Z,21.02
2023-01-29T19:47:43.227Z,22.75
2023-01-29T19:50:10.955Z,22.73
2023-01-29T19:52:53.011Z,23.42
2023-01-29T19:55:21.005Z,15.85
2023-01-29T19:57:47.877Z,21.20
2023-01-29T20:00:17.311Z,21.88
2023-01-29T20:02:43.838Z,21.23
2023-01-29T20:05:12.463Z,22.70
2023-01-29T20:07:41.086Z,17.55
2023-01-29T20:10:11.286Z,21.33
2023-01-29T20:12:38.431Z,23.08
2023-01-29T20:15:05.328Z,23.88
2023-01-29T20:17:31.857Z,21.27
2023-01-29T20:19:58.372Z,19.58
2023-01-29T20:22:26.378Z,22.98
2023-01-29T20:24:53.129Z,19.58
2023-01-29T20:27:19.990Z,22.83
2023-01-29T20:29:46.603Z,19.35
2023-01-29T20:32:14.478Z,24.42
2023-01-29T20:34:41.355Z,18.00
2023-01-29T20:37:07.889Z,22.20
2023-01-29T20:39:34.414Z,22.73
2023-01-29T20:42:00.891Z,20.70
2023-01-29T20:44:27.540Z,20.38
2023-01-29T20:46:54.153Z,22.25
2023-01-29T20:49:21.738Z,22.00
2023-01-29T20:51:48.262Z,21.13
2023-01-29T20:54:14.938Z,20.40
2023-01-29T20:56:42.461Z,21.45
2023-01-29T20:59:10.137Z,19.52
2023-01-29T21:01:36.743Z,20.90
2023-01-29T21:04:03.473Z,20.75
2023-01-29T21:06:30.636Z,23.88
2023-01-29T21:08:57.289Z,22.85
2023-01-29T21:11:23.866Z,20.27
2023-01-29T21:13:53.101Z,11.30
2023-01-29T21:16:19.703Z,23.88
2023-01-29T21:18:46.206Z,20.30
2023-01-29T21:21:12.709Z,22.08
2023-01-29T21:23:39.213Z,22.02
2023-01-29T21:26:06.878Z,22.73
2023-01-29T21:28:33.826Z,17.30
2023-01-29T21:31:10.042Z,21.13
2023-01-29T21:33:37.043Z,21.92
2023-01-29T21:36:04.060Z,22.40
2023-01-29T21:38:30.569Z,19.58
2023-01-29T21:41:01.536Z,20.60
2023-01-29T21:43:28.059Z,22.40
2023-01-29T21:45:59.223Z,16.42
2023-01-29T21:48:26.659Z,16.52
2023-01-29T21:50:53.312Z,22.15
2023-01-29T21:53:20.059Z,18.25
2023-01-29T21:55:47.034Z,21.85
2023-01-29T21:58:14.669Z,21.42
2023-01-29T22:00:41.484Z,18.85
2023-01-29T22:03:08.048Z,21.63
2023-01-29T22:05:34.720Z,16.85
2023-01-29T22:08:01.376Z,22.60
2023-01-29T22:10:28.847Z,20.83
2023-01-29T22:12:55.543Z,21.25
2023-01-29T22:15:23.903Z,20.02
2023-01-29T22:17:50.883Z,20.05
2023-01-29T22:20:17.896Z,20.52
2023-01-29T22:22:44.655Z,19.70
2023-01-29T22:25:11.557Z,21.00
2023-01-29T22:27:38.069Z,21.40
2023-01-29T22:30:05.584Z,20.83
2023-01-29T22:32:32.758Z,21.08
2023-01-29T22:34:59.298Z,21.33
2023-01-29T22:37:25.793Z,19.38
2023-01-29T22:39:52.352Z,18.73
2023-01-29T22:42:20.375Z,19.48
2023-01-29T22:44:48.052Z,19.45
2023-01-29T22:47:15.030Z,18.65
2023-01-29T22:49:41.558Z,18.45
2023-01-29T22:52:11.026Z,15.40
2023-01-29T22:54:39.843Z,16.77
2023-01-29T22:57:09.911Z,13.57
2023-01-29T22:59:36.874Z,15.93
2023-01-29T23:02:03.858Z,17.42
2023-01-29T23:04:30.617Z,18.35
2023-01-29T23:06:58.257Z,17.23
2023-01-29T23:09:25.190Z,17.77
2023-01-29T23:11:52.033Z,18.02
2023-01-29T23:14:18.900Z,16.58
2023-01-29T23:16:45.638Z,17.42
2023-01-29T23:19:12.371Z,17.48
2023-01-29T23:21:39.755Z,16.92
2023-01-29T23:24:07.922Z,16.95
2023-01-29T23:26:53.299Z,18.08
2023-01-29T23:29:20.458Z,17.80
2023-01-29T23:31:47.457Z,17.25
2023-01-29T23:34:15.102Z,13.75
2023-01-29T23:36:42.509Z,14.82
2023-01-29T23:39:09.548Z,16.70
2023-01-29T23:41:36.313Z,17.10
2023-01-29T23:44:03.677Z,16.95
2023-01-29T23:46:31.063Z,15.77
2023-01-29T23:48:57.815Z,14.95
2023-01-29T23:51:24.499Z,15.90
2023-01-29T23:53:51.279Z,17.23
2023-01-29T23:56:18.094Z,19.05
2023-01-29T23:58:45.011Z,15.02
